sensor_id;sensor_type;location;lat;lon;timestamp;pressure;altitude;pressure_sealevel;temperature;humidity
56374;BME280;58212;47.034;7.376;2024-03-17T00:02:14;96043.78;;;6.94;83.02
56374;BME280;58212;47.034;7.376;2024-03-17T00:04:40;96042.38;;;6.98;82.83
56374;BME280;58212;47.034;7.376;2024-03-17T00:07:09;96035.69;;;6.96;82.91
56374;BME280;58212;47.034;7.376;2024-03-17T00:09:35;96030.41;;;6.89;82.99
56374;BME280;58212;47.034;7.376;2024-03-17T00:12:02;96029.59;;;6.88;82.79
56374;BME280;58212;47.034;7.376;2024-03-17T00:14:28;96032.97;;;6.82;82.91
56374;BME280;58212;47.034;7.376;2024-03-17T00:16:55;96023.47;;;6.81;82.99
56374;BME280;58212;47.034;7.376;2024-03-17T00:19:21;96028.06;;;6.73;83.35
56374;BME280;58212;47.034;7.376;2024-03-17T00:21:50;96026.06;;;6.75;83.28
56374;BME280;58212;47.034;7.376;2024-03-17T00:24:18;96022.84;;;6.79;83.21
56374;BME280;58212;47.034;7.376;2024-03-17T00:26:46;96024.31;;;6.88;82.67
56374;BME280;58212;47.034;7.376;2024-03-17T00:29:12;96020.59;;;6.76;82.40
56374;BME280;58212;47.034;7.376;2024-03-17T00:31:39;96019.56;;;6.71;82.85
56374;BME280;58212;47.034;7.376;2024-03-17T00:34:06;96010.91;;;6.77;82.74
56374;BME280;58212;47.034;7.376;2024-03-17T00:36:33;96016.31;;;6.69;83.09
56374;BME280;58212;47.034;7.376;2024-03-17T00:38:59;96016.09;;;6.64;83.10
56374;BME280;58212;47.034;7.376;2024-03-17T00:41:29;96004.16;;;6.68;82.95
56374;BME280;58212;47.034;7.376;2024-03-17T00:43:55;96009.41;;;6.68;82.74
56374;BME280;58212;47.034;7.376;2024-03-17T00:46:22;95993.56;;;6.55;82.65
56374;BME280;58212;47.034;7.376;2024-03-17T00:48:50;95992.00;;;6.60;82.71
56374;BME280;58212;47.034;7.376;2024-03-17T00:51:17;95990.34;;;6.59;82.65
56374;BME280;58212;47.034;7.376;2024-03-17T00:53:42;95992.34;;;6.57;82.18
56374;BME280;58212;47.034;7.376;2024-03-17T00:56:09;95991.09;;;6.53;82.74
56374;BME280;58212;47.034;7.376;2024-03-17T00:58:36;95994.34;;;6.49;82.61
56374;BME280;58212;47.034;7.376;2024-03-17T01:01:04;95995.31;;;6.48;82.69
56374;BME280;58212;47.034;7.376;2024-03-17T01:03:30;95991.47;;;6.44;82.66
56374;BME280;58212;47.034;7.376;2024-03-17T01:05:56;95994.47;;;6.41;82.67
56374;BME280;58212;47.034;7.376;2024-03-17T01:08:22;95981.31;;;6.41;82.63
56374;BME280;58212;47.034;7.376;2024-03-17T01:10:49;95983.72;;;6.35;82.54
56374;BME280;58212;47.034;7.376;2024-03-17T01:13:16;95977.03;;;6.33;82.71
56374;BME280;58212;47.034;7.376;2024-03-17T01:15:44;95976.97;;;6.26;82.71
56374;BME280;58212;47.034;7.376;2024-03-17T01:18:10;95977.28;;;6.17;82.91
56374;BME280;58212;47.034;7.376;2024-03-17T01:20:38;95973.66;;;6.18;82.68
56374;BME280;58212;47.034;7.376;2024-03-17T01:23:04;95973.53;;;6.26;82.83
56374;BME280;58212;47.034;7.376;2024-03-17T01:25:31;95968.66;;;6.23;82.21
56374;BME280;58212;47.034;7.376;2024-03-17T01:28:01;95973.31;;;6.27;82.69
56374;BME280;58212;47.034;7.376;2024-03-17T01:30:28;95966.84;;;6.23;82.34
56374;BME280;58212;47.034;7.376;2024-03-17T01:32:55;95960.78;;;6.23;82.36
56374;BME280;58212;47.034;7.376;2024-03-17T01:35:22;95964.22;;;6.23;81.96
56374;BME280;58212;47.034;7.376;2024-03-17T01:37:48;95953.22;;;6.13;82.12
56374;BME280;58212;47.034;7.376;2024-03-17T01:40:15;95952.31;;;6.00;82.56
56374;BME280;58212;47.034;7.376;2024-03-17T01:42:42;95949.84;;;5.98;82.68
56374;BME280;58212;47.034;7.376;2024-03-17T01:45:23;95951.44;;;5.93;82.79
56374;BME280;58212;47.034;7.376;2024-03-17T01:47:52;95950.44;;;5.94;83.00
56374;BME280;58212;47.034;7.376;2024-03-17T01:50:20;95955.16;;;5.83;82.96
56374;BME280;58212;47.034;7.376;2024-03-17T01:52:51;95959.53;;;5.76;83.29
56374;BME280;58212;47.034;7.376;2024-03-17T01:55:20;95959.72;;;5.75;83.87
56374;BME280;58212;47.034;7.376;2024-03-17T01:57:46;95963.41;;;5.80;83.82
56374;BME280;58212;47.034;7.376;2024-03-17T02:00:13;95971.13;;;5.82;83.85
56374;BME280;58212;47.034;7.376;2024-03-17T02:02:40;95970.59;;;5.86;83.44
56374;BME280;58212;47.034;7.376;2024-03-17T02:05:07;95960.59;;;5.82;83.29
56374;BME280;58212;47.034;7.376;2024-03-17T02:07:35;95960.59;;;5.82;83.31
56374;BME280;58212;47.034;7.376;2024-03-17T02:10:02;95963.72;;;5.71;83.56
56374;BME280;58212;47.034;7.376;2024-03-17T02:12:29;95947.41;;;5.75;83.13
56374;BME280;58212;47.034;7.376;2024-03-17T02:14:57;95943.00;;;5.76;83.11
56374;BME280;58212;47.034;7.376;2024-03-17T02:17:23;95932.72;;;5.81;83.58
56374;BME280;58212;47.034;7.376;2024-03-17T02:19:51;95925.22;;;5.78;83.12
56374;BME280;58212;47.034;7.376;2024-03-17T02:22:19;95935.63;;;5.86;83.45
56374;BME280;58212;47.034;7.376;2024-03-17T02:24:46;95927.41;;;5.74;83.32
56374;BME280;58212;47.034;7.376;2024-03-17T02:27:12;95923.72;;;5.69;83.77
56374;BME280;58212;47.034;7.376;2024-03-17T02:29:39;95930.78;;;5.68;84.29
56374;BME280;58212;47.034;7.376;2024-03-17T02:32:05;95919.66;;;5.66;83.98
56374;BME280;58212;47.034;7.376;2024-03-17T02:34:33;95914.78;;;5.63;84.07
56374;BME280;58212;47.034;7.376;2024-03-17T02:37:00;95914.41;;;5.45;84.37
56374;BME280;58212;47.034;7.376;2024-03-17T02:39:28;95913.41;;;5.46;84.92
56374;BME280;58212;47.034;7.376;2024-03-17T02:42:00;95907.72;;;5.64;84.05
56374;BME280;58212;47.034;7.376;2024-03-17T02:44:28;95909.22;;;5.73;83.10
56374;BME280;58212;47.034;7.376;2024-03-17T02:46:54;95905.66;;;5.59;83.14
56374;BME280;58212;47.034;7.376;2024-03-17T02:49:21;95904.69;;;5.39;83.64
56374;BME280;58212;47.034;7.376;2024-03-17T02:51:48;95903.66;;;5.40;84.34
56374;BME280;58212;47.034;7.376;2024-03-17T02:54:15;95889.09;;;5.59;83.73
56374;BME280;58212;47.034;7.376;2024-03-17T02:56:44;95894.34;;;5.59;83.34
56374;BME280;58212;47.034;7.376;2024-03-17T02:59:11;95895.16;;;5.59;83.50
56374;BME280;58212;47.034;7.376;2024-03-17T03:01:38;95900.41;;;5.59;83.27
56374;BME280;58212;47.034;7.376;2024-03-17T03:04:05;95903.84;;;5.38;83.89
56374;BME280;58212;47.034;7.376;2024-03-17T03:06:33;95904.09;;;5.43;84.17
56374;BME280;58212;47.034;7.376;2024-03-17T03:09:00;95907.97;;;5.26;84.29
56374;BME280;58212;47.034;7.376;2024-03-17T03:11:27;95901.34;;;5.09;85.02
56374;BME280;58212;47.034;7.376;2024-03-17T03:13:55;95904.56;;;5.11;85.22
56374;BME280;58212;47.034;7.376;2024-03-17T03:16:22;95904.63;;;5.18;85.18
56374;BME280;58212;47.034;7.376;2024-03-17T03:18:50;95908.84;;;5.33;85.08
56374;BME280;58212;47.034;7.376;2024-03-17T03:21:17;95916.16;;;5.38;84.55
56374;BME280;58212;47.034;7.376;2024-03-17T03:23:44;95914.84;;;5.27;84.67
56374;BME280;58212;47.034;7.376;2024-03-17T03:26:12;95917.53;;;5.34;84.46
56374;BME280;58212;47.034;7.376;2024-03-17T03:28:39;95914.16;;;5.40;84.54
56374;BME280;58212;47.034;7.376;2024-03-17T03:31:10;95907.31;;;5.39;84.22
56374;BME280;58212;47.034;7.376;2024-03-17T03:33:39;95905.59;;;5.31;84.16
56374;BME280;58212;47.034;7.376;2024-03-17T03:36:10;95903.84;;;5.38;84.23
56374;BME280;58212;47.034;7.376;2024-03-17T03:38:37;95901.03;;;5.40;84.10
56374;BME280;58212;47.034;7.376;2024-03-17T03:41:08;95895.59;;;5.41;83.94
56374;BME280;58212;47.034;7.376;2024-03-17T03:43:35;95902.66;;;5.41;84.19
56374;BME280;58212;47.034;7.376;2024-03-17T03:46:02;95896.81;;;5.39;83.88
56374;BME280;58212;47.034;7.376;2024-03-17T03:48:31;95896.38;;;5.35;84.27
56374;BME280;58212;47.034;7.376;2024-03-17T03:51:02;95906.28;;;5.40;84.23
56374;BME280;58212;47.034;7.376;2024-03-17T03:53:30;95900.91;;;5.48;84.36
56374;BME280;58212;47.034;7.376;2024-03-17T03:55:57;95897.59;;;5.39;84.14
56374;BME280;58212;47.034;7.376;2024-03-17T03:58:24;95900.53;;;5.30;84.29
56374;BME280;58212;47.034;7.376;2024-03-17T04:00:52;95899.53;;;5.31;84.50
56374;BME280;58212;47.034;7.376;2024-03-17T04:03:18;95891.66;;;5.31;84.65
56374;BME280;58212;47.034;7.376;2024-03-17T04:05:46;95892.53;;;5.38;84.96
56374;BME280;58212;47.034;7.376;2024-03-17T04:08:13;95892.00;;;5.43;84.47
56374;BME280;58212;47.034;7.376;2024-03-17T04:10:40;95880.47;;;5.43;84.22
56374;BME280;58212;47.034;7.376;2024-03-17T04:13:09;95881.50;;;5.43;84.37
56374;BME280;58212;47.034;7.376;2024-03-17T04:15:37;95879.88;;;5.41;84.14
56374;BME280;58212;47.034;7.376;2024-03-17T04:18:04;95867.72;;;5.40;84.09
56374;BME280;58212;47.034;7.376;2024-03-17T04:20:31;95881.50;;;5.43;84.32
56374;BME280;58212;47.034;7.376;2024-03-17T04:22:59;95896.84;;;5.46;84.35
56374;BME280;58212;47.034;7.376;2024-03-17T04:25:26;95885.94;;;5.42;84.33
56374;BME280;58212;47.034;7.376;2024-03-17T04:27:54;95899.44;;;5.39;84.55
56374;BME280;58212;47.034;7.376;2024-03-17T04:30:20;95903.09;;;5.45;84.39
56374;BME280;58212;47.034;7.376;2024-03-17T04:32:47;95899.81;;;5.21;84.78
56374;BME280;58212;47.034;7.376;2024-03-17T04:35:14;95910.31;;;5.21;85.10
56374;BME280;58212;47.034;7.376;2024-03-17T04:37:42;95906.59;;;5.09;85.39
56374;BME280;58212;47.034;7.376;2024-03-17T04:40:10;95905.16;;;4.92;86.19
56374;BME280;58212;47.034;7.376;2024-03-17T04:42:37;95911.56;;;5.04;86.27
56374;BME280;58212;47.034;7.376;2024-03-17T04:45:07;95906.97;;;5.06;86.04
56374;BME280;58212;47.034;7.376;2024-03-17T04:47:35;95915.38;;;5.02;85.89
56374;BME280;58212;47.034;7.376;2024-03-17T04:50:03;95910.94;;;5.02;86.34
56374;BME280;58212;47.034;7.376;2024-03-17T04:52:30;95907.56;;;5.08;86.19
56374;BME280;58212;47.034;7.376;2024-03-17T04:54:57;95905.94;;;5.07;85.91
56374;BME280;58212;47.034;7.376;2024-03-17T04:57:26;95904.03;;;5.16;85.70
56374;BME280;58212;47.034;7.376;2024-03-17T04:59:53;95896.81;;;5.03;85.63
56374;BME280;58212;47.034;7.376;2024-03-17T05:02:20;95893.75;;;5.00;85.96
56374;BME280;58212;47.034;7.376;2024-03-17T05:04:48;95891.38;;;5.05;85.88
56374;BME280;58212;47.034;7.376;2024-03-17T05:07:15;95889.97;;;5.02;86.09
56374;BME280;58212;47.034;7.376;2024-03-17T05:09:42;95888.50;;;5.00;85.83
56374;BME280;58212;47.034;7.376;2024-03-17T05:12:10;95889.16;;;5.02;86.02
56374;BME280;58212;47.034;7.376;2024-03-17T05:14:38;95891.56;;;5.03;86.05
56374;BME280;58212;47.034;7.376;2024-03-17T05:17:05;95886.91;;;4.99;85.96
56374;BME280;58212;47.034;7.376;2024-03-17T05:19:31;95891.78;;;5.02;85.83
56374;BME280;58212;47.034;7.376;2024-03-17T05:21:58;95893.38;;;5.03;85.73
56374;BME280;58212;47.034;7.376;2024-03-17T05:24:26;95892.00;;;5.07;85.63
56374;BME280;58212;47.034;7.376;2024-03-17T05:26:52;95891.38;;;5.05;85.67
56374;BME280;58212;47.034;7.376;2024-03-17T05:29:19;95889.66;;;5.12;85.71
56374;BME280;58212;47.034;7.376;2024-03-17T05:31:49;95888.41;;;5.29;85.59
56374;BME280;58212;47.034;7.376;2024-03-17T05:34:17;95882.22;;;5.36;85.11
56374;BME280;58212;47.034;7.376;2024-03-17T05:36:44;95893.59;;;5.43;85.01
56374;BME280;58212;47.034;7.376;2024-03-17T05:39:12;95893.81;;;5.42;85.23
56374;BME280;58212;47.034;7.376;2024-03-17T05:41:39;95894.84;;;5.48;85.25
56374;BME280;58212;47.034;7.376;2024-03-17T05:44:06;95901.47;;;5.43;84.89
56374;BME280;58212;47.034;7.376;2024-03-17T05:46:33;95901.72;;;5.49;84.81
56374;BME280;58212;47.034;7.376;2024-03-17T05:49:01;95897.97;;;5.58;84.92
56374;BME280;58212;47.034;7.376;2024-03-17T05:51:29;95892.03;;;5.70;84.54
56374;BME280;58212;47.034;7.376;2024-03-17T05:53:56;95899.41;;;5.60;84.31
56374;BME280;58212;47.034;7.376;2024-03-17T05:56:24;95899.97;;;5.56;84.60
56374;BME280;58212;47.034;7.376;2024-03-17T05:58:51;95908.78;;;5.48;84.75
56374;BME280;58212;47.034;7.376;2024-03-17T06:01:18;95908.34;;;5.23;85.80
56374;BME280;58212;47.034;7.376;2024-03-17T06:03:48;95917.69;;;5.11;86.35
56374;BME280;58212;47.034;7.376;2024-03-17T06:06:16;95917.44;;;5.06;86.84
56374;BME280;58212;47.034;7.376;2024-03-17T06:08:43;95917.56;;;5.19;86.78
56374;BME280;58212;47.034;7.376;2024-03-17T06:11:10;95923.38;;;5.36;86.81
56374;BME280;58212;47.034;7.376;2024-03-17T06:13:37;95916.59;;;5.41;86.10
56374;BME280;58212;47.034;7.376;2024-03-17T06:16:04;95921.53;;;5.51;85.73
56374;BME280;58212;47.034;7.376;2024-03-17T06:18:31;95919.72;;;5.73;85.10
56374;BME280;58212;47.034;7.376;2024-03-17T06:20:58;95913.34;;;5.82;84.73
56374;BME280;58212;47.034;7.376;2024-03-17T06:23:27;95917.03;;;5.87;84.40
56374;BME280;58212;47.034;7.376;2024-03-17T06:25:54;95912.91;;;6.00;84.17
56374;BME280;58212;47.034;7.376;2024-03-17T06:28:22;95913.91;;;5.99;84.21
56374;BME280;58212;47.034;7.376;2024-03-17T06:30:56;95914.09;;;5.97;84.53
56374;BME280;58212;47.034;7.376;2024-03-17T06:33:25;95917.72;;;5.96;84.97
56374;BME280;58212;47.034;7.376;2024-03-17T06:35:53;95917.38;;;6.06;84.98
56374;BME280;58212;47.034;7.376;2024-03-17T06:38:20;95922.72;;;6.12;84.94
56374;BME280;58212;47.034;7.376;2024-03-17T06:40:51;95911.00;;;6.15;85.01
56374;BME280;58212;47.034;7.376;2024-03-17T06:43:18;95916.06;;;6.16;85.10
56374;BME280;58212;47.034;7.376;2024-03-17T06:45:53;95913.63;;;6.15;85.11
56374;BME280;58212;47.034;7.376;2024-03-17T06:48:21;95914.66;;;6.20;85.20
56374;BME280;58212;47.034;7.376;2024-03-17T06:50:48;95910.84;;;6.23;85.48
56374;BME280;58212;47.034;7.376;2024-03-17T06:53:15;95917.66;;;6.45;85.19
56374;BME280;58212;47.034;7.376;2024-03-17T06:55:43;95915.09;;;6.58;84.33
56374;BME280;58212;47.034;7.376;2024-03-17T06:58:13;95915.75;;;6.60;84.52
56374;BME280;58212;47.034;7.376;2024-03-17T07:00:39;95919.41;;;6.66;84.44
56374;BME280;58212;47.034;7.376;2024-03-17T07:03:08;95919.44;;;6.72;84.27
56374;BME280;58212;47.034;7.376;2024-03-17T07:05:35;95923.72;;;6.80;84.13
56374;BME280;58212;47.034;7.376;2024-03-17T07:08:03;95926.16;;;6.81;83.52
56374;BME280;58212;47.034;7.376;2024-03-17T07:10:33;95922.56;;;6.89;82.67
56374;BME280;58212;47.034;7.376;2024-03-17T07:13:03;95917.31;;;6.96;82.92
56374;BME280;58212;47.034;7.376;2024-03-17T07:15:31;95920.13;;;6.94;82.77
56374;BME280;58212;47.034;7.376;2024-03-17T07:17:58;95915.50;;;6.96;82.61
56374;BME280;58212;47.034;7.376;2024-03-17T07:20:25;95913.06;;;7.01;82.45
56374;BME280;58212;47.034;7.376;2024-03-17T07:22:52;95918.75;;;7.05;82.33
56374;BME280;58212;47.034;7.376;2024-03-17T07:25:18;95922.00;;;7.00;81.83
56374;BME280;58212;47.034;7.376;2024-03-17T07:27:45;95917.56;;;7.01;81.54
56374;BME280;58212;47.034;7.376;2024-03-17T07:30:12;95922.44;;;7.10;81.32
56374;BME280;58212;47.034;7.376;2024-03-17T07:32:40;95917.16;;;7.10;80.65
56374;BME280;58212;47.034;7.376;2024-03-17T07:35:07;95921.44;;;7.18;80.14
56374;BME280;58212;47.034;7.376;2024-03-17T07:37:34;95926.31;;;7.21;79.25
56374;BME280;58212;47.034;7.376;2024-03-17T07:40:04;95925.50;;;7.20;79.09
56374;BME280;58212;47.034;7.376;2024-03-17T07:42:32;95922.47;;;7.23;79.66
56374;BME280;58212;47.034;7.376;2024-03-17T07:44:59;95931.16;;;7.24;79.61
56374;BME280;58212;47.034;7.376;2024-03-17T07:47:26;95926.53;;;7.26;79.66
56374;BME280;58212;47.034;7.376;2024-03-17T07:50:02;95932.22;;;7.29;79.54
56374;BME280;58212;47.034;7.376;2024-03-17T07:52:31;95925.31;;;7.28;79.32
56374;BME280;58212;47.034;7.376;2024-03-17T07:54:57;95927.78;;;7.30;79.38
56374;BME280;58212;47.034;7.376;2024-03-17T07:57:24;95927.78;;;7.30;79.38
56374;BME280;58212;47.034;7.376;2024-03-17T07:59:52;95933.41;;;7.27;78.99
56374;BME280;58212;47.034;7.376;2024-03-17T08:02:19;95928.72;;;7.16;81.05
56374;BME280;58212;47.034;7.376;2024-03-17T08:04:46;95934.38;;;7.19;81.69
56374;BME280;58212;47.034;7.376;2024-03-17T08:07:14;95935.78;;;7.09;82.47
56374;BME280;58212;47.034;7.376;2024-03-17T08:09:41;95940.63;;;7.12;82.82
56374;BME280;58212;47.034;7.376;2024-03-17T08:12:08;95942.06;;;7.08;83.38
56374;BME280;58212;47.034;7.376;2024-03-17T08:14:35;95943.47;;;7.10;83.16
56374;BME280;58212;47.034;7.376;2024-03-17T08:17:02;95944.88;;;7.06;83.33
56374;BME280;58212;47.034;7.376;2024-03-17T08:19:29;95940.72;;;6.84;84.19
56374;BME280;58212;47.034;7.376;2024-03-17T08:21:56;95944.84;;;6.93;84.43
56374;BME280;58212;47.034;7.376;2024-03-17T08:24:24;95947.13;;;7.16;84.41
56374;BME280;58212;47.034;7.376;2024-03-17T08:26:51;95949.59;;;7.24;84.30
56374;BME280;58212;47.034;7.376;2024-03-17T08:29:18;95946.34;;;7.15;83.49
56374;BME280;58212;47.034;7.376;2024-03-17T08:31:45;95953.84;;;7.18;84.15
56374;BME280;58212;47.034;7.376;2024-03-17T08:34:12;95954.41;;;7.07;84.59
56374;BME280;58212;47.034;7.376;2024-03-17T08:36:39;95947.75;;;7.11;85.25
56374;BME280;58212;47.034;7.376;2024-03-17T08:39:05;95945.47;;;7.02;84.86
56374;BME280;58212;47.034;7.376;2024-03-17T08:41:36;95944.31;;;7.17;84.17
56374;BME280;58212;47.034;7.376;2024-03-17T08:44:03;95939.44;;;7.08;83.27
56374;BME280;58212;47.034;7.376;2024-03-17T08:46:31;95936.56;;;7.03;83.65
56374;BME280;58212;47.034;7.376;2024-03-17T08:48:58;95929.13;;;7.19;83.65
56374;BME280;58212;47.034;7.376;2024-03-17T08:51:25;95930.34;;;7.23;83.52
56374;BME280;58212;47.034;7.376;2024-03-17T08:53:52;95929.66;;;7.56;83.80
56374;BME280;58212;47.034;7.376;2024-03-17T08:56:19;95926.22;;;7.81;83.46
56374;BME280;58212;47.034;7.376;2024-03-17T08:58:50;95922.59;;;8.02;82.42
56374;BME280;58212;47.034;7.376;2024-03-17T09:01:17;95931.72;;;7.73;82.55
56374;BME280;58212;47.034;7.376;2024-03-17T09:03:44;95925.84;;;8.04;82.53
56374;BME280;58212;47.034;7.376;2024-03-17T09:06:15;95920.56;;;8.17;81.22
56374;BME280;58212;47.034;7.376;2024-03-17T09:08:44;95924.44;;;8.34;82.09
56374;BME280;58212;47.034;7.376;2024-03-17T09:11:13;95920.38;;;8.39;81.15
56374;BME280;58212;47.034;7.376;2024-03-17T09:13:40;95919.72;;;8.69;80.96
56374;BME280;58212;47.034;7.376;2024-03-17T09:16:10;95926.19;;;8.67;80.09
56374;BME280;58212;47.034;7.376;2024-03-17T09:18:39;95913.69;;;8.43;80.75
56374;BME280;58212;47.034;7.376;2024-03-17T09:21:07;95914.84;;;8.66;80.51
56374;BME280;58212;47.034;7.376;2024-03-17T09:23:35;95910.72;;;8.90;80.43
56374;BME280;58212;47.034;7.376;2024-03-17T09:26:03;95913.13;;;8.98;79.32
56374;BME280;58212;47.034;7.376;2024-03-17T09:28:32;95909.06;;;8.96;78.64
56374;BME280;58212;47.034;7.376;2024-03-17T09:30:59;95912.13;;;8.93;79.01
56374;BME280;58212;47.034;7.376;2024-03-17T09:33:29;95922.28;;;8.89;79.69
56374;BME280;58212;47.034;7.376;2024-03-17T09:35:57;95913.47;;;8.51;79.91
56374;BME280;58212;47.034;7.376;2024-03-17T09:38:26;95907.72;;;8.73;80.28
56374;BME280;58212;47.034;7.376;2024-03-17T09:40:54;95902.03;;;8.70;79.56
56374;BME280;58212;47.034;7.376;2024-03-17T09:43:23;95903.09;;;8.69;79.70
56374;BME280;58212;47.034;7.376;2024-03-17T09:45:51;95910.28;;;8.93;79.93
56374;BME280;58212;47.034;7.376;2024-03-17T09:48:23;95907.47;;;8.88;79.34
56374;BME280;58212;47.034;7.376;2024-03-17T09:50:54;95907.19;;;8.39;79.17
56374;BME280;58212;47.034;7.376;2024-03-17T09:53:24;95912.84;;;8.62;79.57
56374;BME280;58212;47.034;7.376;2024-03-17T09:55:57;95912.44;;;8.58;78.65
56374;BME280;58212;47.034;7.376;2024-03-17T09:58:25;95911.19;;;8.67;78.72
56374;BME280;58212;47.034;7.376;2024-03-17T10:00:52;95906.75;;;8.61;78.88
56374;BME280;58212;47.034;7.376;2024-03-17T10:03:41;95906.09;;;8.66;79.24
56374;BME280;58212;47.034;7.376;2024-03-17T10:06:12;95906.25;;;8.91;79.75
56374;BME280;58212;47.034;7.376;2024-03-17T10:08:43;95910.78;;;9.21;78.28
56374;BME280;58212;47.034;7.376;2024-03-17T10:11:10;95908.28;;;8.89;78.18
56374;BME280;58212;47.034;7.376;2024-03-17T10:13:38;95913.81;;;8.74;79.16
56374;BME280;58212;47.034;7.376;2024-03-17T10:16:05;95911.34;;;8.86;79.73
56374;BME280;58212;47.034;7.376;2024-03-17T10:18:32;95910.78;;;9.21;78.89
56374;BME280;58212;47.034;7.376;2024-03-17T10:20:59;95910.03;;;9.08;79.31
56374;BME280;58212;47.034;7.376;2024-03-17T10:23:28;95906.16;;;9.17;78.88
56374;BME280;58212;47.034;7.376;2024-03-17T10:25:55;95908.81;;;9.48;79.38
56374;BME280;58212;47.034;7.376;2024-03-17T10:28:22;95914.03;;;9.93;77.43
56374;BME280;58212;47.034;7.376;2024-03-17T10:30:58;95891.81;;;9.69;77.42
56374;BME280;58212;47.034;7.376;2024-03-17T10:33:27;95898.13;;;9.68;77.93
56374;BME280;58212;47.034;7.376;2024-03-17T10:36:00;95896.84;;;9.46;78.69
56374;BME280;58212;47.034;7.376;2024-03-17T10:38:29;95888.16;;;9.70;78.36
56374;BME280;58212;47.034;7.376;2024-03-17T10:40:56;95900.59;;;9.25;78.70
56374;BME280;58212;47.034;7.376;2024-03-17T10:43:23;95877.00;;;8.99;79.65
56374;BME280;58212;47.034;7.376;2024-03-17T10:45:52;95883.13;;;9.30;79.88
56374;BME280;58212;47.034;7.376;2024-03-17T10:48:21;95875.56;;;9.65;79.31
56374;BME280;58212;47.034;7.376;2024-03-17T10:50:52;95867.63;;;9.72;78.08
56374;BME280;58212;47.034;7.376;2024-03-17T10:53:20;95867.13;;;9.50;78.01
56374;BME280;58212;47.034;7.376;2024-03-17T10:56:01;95867.38;;;9.49;77.91
56374;BME280;58212;47.034;7.376;2024-03-17T10:58:33;95864.69;;;9.80;77.88
56374;BME280;58212;47.034;7.376;2024-03-17T11:01:01;95844.84;;;9.71;77.40
56374;BME280;58212;47.034;7.376;2024-03-17T11:03:31;95846.47;;;9.72;77.18
56374;BME280;58212;47.034;7.376;2024-03-17T11:05:59;95843.28;;;9.88;77.32
56374;BME280;58212;47.034;7.376;2024-03-17T11:08:31;95842.75;;;10.04;75.62
56374;BME280;58212;47.034;7.376;2024-03-17T11:11:00;95836.16;;;10.13;75.26
56374;BME280;58212;47.034;7.376;2024-03-17T11:13:28;95841.22;;;9.65;76.75
56374;BME280;58212;47.034;7.376;2024-03-17T11:15:56;95828.13;;;10.02;76.50
56374;BME280;58212;47.034;7.376;2024-03-17T11:18:39;95826.97;;;10.41;76.13
56374;BME280;58212;47.034;7.376;2024-03-17T11:21:19;95826.59;;;10.55;75.04
56374;BME280;58212;47.034;7.376;2024-03-17T11:24:01;95833.66;;;10.61;74.45
56374;BME280;58212;47.034;7.376;2024-03-17T11:26:32;95834.91;;;10.41;74.91
56374;BME280;58212;47.034;7.376;2024-03-17T11:29:00;95824.16;;;10.72;75.09
56374;BME280;58212;47.034;7.376;2024-03-17T11:31:36;95827.69;;;10.84;73.95
56374;BME280;58212;47.034;7.376;2024-03-17T11:36:50;95827.59;;;10.91;73.57
56374;BME280;58212;47.034;7.376;2024-03-17T11:39:19;95824.28;;;10.95;72.48
56374;BME280;58212;47.034;7.376;2024-03-17T11:41:49;95819.16;;;11.12;71.76
56374;BME280;58212;47.034;7.376;2024-03-17T11:44:23;95818.31;;;11.00;71.44
56374;BME280;58212;47.034;7.376;2024-03-17T11:46:50;95819.50;;;11.34;71.84
56374;BME280;58212;47.034;7.376;2024-03-17T11:49:20;95815.81;;;11.46;70.54
56374;BME280;58212;47.034;7.376;2024-03-17T11:51:47;95814.19;;;11.34;70.42
56374;BME280;58212;47.034;7.376;2024-03-17T11:54:15;95813.63;;;11.73;69.64
56374;BME280;58212;47.034;7.376;2024-03-17T11:56:49;95805.91;;;12.30;67.78
56374;BME280;58212;47.034;7.376;2024-03-17T11:59:17;95809.81;;;12.50;65.99
56374;BME280;58212;47.034;7.376;2024-03-17T12:01:44;95813.50;;;12.14;66.49
56374;BME280;58212;47.034;7.376;2024-03-17T12:04:13;95814.19;;;11.87;67.84
56374;BME280;58212;47.034;7.376;2024-03-17T12:06:39;95803.25;;;11.95;68.96
56374;BME280;58212;47.034;7.376;2024-03-17T12:09:17;95807.34;;;11.67;68.86
56374;BME280;58212;47.034;7.376;2024-03-17T12:11:46;95807.34;;;11.67;69.76
56374;BME280;58212;47.034;7.376;2024-03-17T12:14:18;95811.19;;;11.71;69.13
56374;BME280;58212;47.034;7.376;2024-03-17T12:16:52;95814.88;;;11.29;68.77
56374;BME280;58212;47.034;7.376;2024-03-17T12:19:19;95800.59;;;11.42;69.59
56374;BME280;58212;47.034;7.376;2024-03-17T12:21:48;95804.78;;;11.49;68.60
56374;BME280;58212;47.034;7.376;2024-03-17T12:24:18;95799.50;;;11.61;68.65
56374;BME280;58212;47.034;7.376;2024-03-17T12:26:44;95808.44;;;11.37;69.46
56374;BME280;58212;47.034;7.376;2024-03-17T12:29:24;95800.50;;;11.37;69.98
56374;BME280;58212;47.034;7.376;2024-03-17T12:31:51;95798.09;;;11.47;69.82
56374;BME280;58212;47.034;7.376;2024-03-17T12:34:19;95794.28;;;11.43;69.13
56374;BME280;58212;47.034;7.376;2024-03-17T12:36:45;95798.97;;;11.29;70.38
56374;BME280;58212;47.034;7.376;2024-03-17T12:39:17;95780.47;;;11.41;71.00
56374;BME280;58212;47.034;7.376;2024-03-17T12:41:45;95783.19;;;11.34;69.81
56374;BME280;58212;47.034;7.376;2024-03-17T12:44:23;95775.53;;;11.14;70.41
56374;BME280;58212;47.034;7.376;2024-03-17T12:46:54;95775.22;;;11.34;70.72
56374;BME280;58212;47.034;7.376;2024-03-17T12:49:21;95769.16;;;11.45;69.91
56374;BME280;58212;47.034;7.376;2024-03-17T12:51:47;95760.50;;;11.38;69.96
56374;BME280;58212;47.034;7.376;2024-03-17T12:54:15;95750.59;;;11.34;70.87
56374;BME280;58212;47.034;7.376;2024-03-17T12:56:41;95753.78;;;11.24;70.68
56374;BME280;58212;47.034;7.376;2024-03-17T12:59:36;95753.03;;;11.05;70.11
56374;BME280;58212;47.034;7.376;2024-03-17T13:02:29;95751.88;;;11.01;70.79
56374;BME280;58212;47.034;7.376;2024-03-17T13:05:20;95741.31;;;11.13;70.91
56374;BME280;58212;47.034;7.376;2024-03-17T13:07:49;95737.72;;;11.37;70.91
56374;BME280;58212;47.034;7.376;2024-03-17T13:10:17;95741.72;;;11.28;70.34
56374;BME280;58212;47.034;7.376;2024-03-17T13:12:45;95740.78;;;11.34;70.14
56374;BME280;58212;47.034;7.376;2024-03-17T13:15:16;95754.72;;;11.18;70.88
56374;BME280;58212;47.034;7.376;2024-03-17T13:17:44;95752.34;;;11.40;71.23
56374;BME280;58212;47.034;7.376;2024-03-17T13:20:12;95752.41;;;11.21;70.92